sensor_id;sensor_type;location;lat;lon;timestamp;pressure;altitude;pressure_sealevel;temperature;humidity
67457;BME280;54319;52.038;4.640;2023-02-04T00:00:17;103523.91;;;6.78;93.82
67457;BME280;54319;52.038;4.640;2023-02-04T00:02:44;103488.22;;;6.60;93.64
67457;BME280;54319;52.038;4.640;2023-02-04T00:05:12;103512.53;;;6.73;93.95
67457;BME280;54319;52.038;4.640;2023-02-04T00:07:39;103498.88;;;6.63;94.06
67457;BME280;54319;52.038;4.640;2023-02-04T00:10:08;103510.81;;;6.72;93.82
67457;BME280;54319;52.038;4.640;2023-02-04T00:12:36;103514.66;;;6.70;93.77
67457;BME280;54319;52.038;4.640;2023-02-04T00:15:03;103509.47;;;6.66;94.09
67457;BME280;54319;52.038;4.640;2023-02-04T00:17:31;103484.28;;;6.53;93.88
67457;BME280;54319;52.038;4.640;2023-02-04T00:19:57;103508.84;;;6.63;94.26
67457;BME280;54319;52.038;4.640;2023-02-04T00:22:24;103510.81;;;6.61;94.15
67457;BME280;54319;52.038;4.640;2023-02-04T00:24:53;103498.97;;;6.50;94.20
67457;BME280;54319;52.038;4.640;2023-02-04T00:27:21;103508.09;;;6.61;94.54
67457;BME280;54319;52.038;4.640;2023-02-04T00:29:48;103516.22;;;6.61;94.56
67457;BME280;54319;52.038;4.640;2023-02-04T00:32:16;103516.47;;;6.58;95.01
67457;BME280;54319;52.038;4.640;2023-02-04T00:34:42;103516.22;;;6.61;94.74
67457;BME280;54319;52.038;4.640;2023-02-04T00:37:09;103502.16;;;6.56;94.66
67457;BME280;54319;52.038;4.640;2023-02-04T00:39:36;103509.19;;;6.58;95.00
67457;BME280;54319;52.038;4.640;2023-02-04T00:42:03;103516.22;;;6.61;94.91
67457;BME280;54319;52.038;4.640;2023-02-04T00:44:31;103517.84;;;6.63;94.52
67457;BME280;54319;52.038;4.640;2023-02-04T00:46:59;103509.72;;;6.63;94.54
67457;BME280;54319;52.038;4.640;2023-02-04T00:49:27;103519.94;;;6.60;94.85
67457;BME280;54319;52.038;4.640;2023-02-04T00:51:53;103490.53;;;6.42;94.72
67457;BME280;54319;52.038;4.640;2023-02-04T00:54:20;103527.31;;;6.58;94.97
67457;BME280;54319;52.038;4.640;2023-02-04T00:56:47;103501.16;;;6.45;94.77
67457;BME280;54319;52.038;4.640;2023-02-04T00:59:14;103501.28;;;6.44;94.76
67457;BME280;54319;52.038;4.640;2023-02-04T01:01:42;103515.00;;;6.54;95.12
67457;BME280;54319;52.038;4.640;2023-02-04T01:04:09;103535.09;;;6.62;95.14
67457;BME280;54319;52.038;4.640;2023-02-04T01:06:36;103488.94;;;6.40;94.94
67457;BME280;54319;52.038;4.640;2023-02-04T01:09:03;103527.59;;;6.66;95.09
67457;BME280;54319;52.038;4.640;2023-02-04T01:11:31;103515.75;;;6.67;94.92
67457;BME280;54319;52.038;4.640;2023-02-04T01:13:58;103519.44;;;6.66;94.99
67457;BME280;54319;52.038;4.640;2023-02-04T01:16:25;103500.69;;;6.51;95.03
67457;BME280;54319;52.038;4.640;2023-02-04T01:18:53;103533.50;;;6.71;95.16
67457;BME280;54319;52.038;4.640;2023-02-04T01:21:20;103533.25;;;6.74;95.03
67457;BME280;54319;52.038;4.640;2023-02-04T01:23:47;103547.47;;;6.78;94.70
67457;BME280;54319;52.038;4.640;2023-02-04T01:26:15;103543.28;;;6.74;94.53
67457;BME280;54319;52.038;4.640;2023-02-04T01:28:42;103545.34;;;6.81;94.36
67457;BME280;54319;52.038;4.640;2023-02-04T01:31:09;103540.19;;;6.78;94.58
67457;BME280;54319;52.038;4.640;2023-02-04T01:33:36;103552.75;;;6.79;94.60
67457;BME280;54319;52.038;4.640;2023-02-04T01:36:05;103558.44;;;6.76;94.72
67457;BME280;54319;52.038;4.640;2023-02-04T01:38:32;103505.06;;;6.41;94.50
67457;BME280;54319;52.038;4.640;2023-02-04T01:40:59;103564.84;;;6.75;94.81
67457;BME280;54319;52.038;4.640;2023-02-04T01:43:27;103562.13;;;6.75;94.62
67457;BME280;54319;52.038;4.640;2023-02-04T01:45:55;103569.53;;;6.73;94.63
67457;BME280;54319;52.038;4.640;2023-02-04T01:48:23;103547.78;;;6.62;95.02
67457;BME280;54319;52.038;4.640;2023-02-04T01:50:52;103568.03;;;6.69;94.76
67457;BME280;54319;52.038;4.640;2023-02-04T01:53:25;103559.38;;;6.64;94.33
67457;BME280;54319;52.038;4.640;2023-02-04T01:55:51;103569.66;;;6.72;94.35
67457;BME280;54319;52.038;4.640;2023-02-04T01:58:19;103580.63;;;6.70;94.73
67457;BME280;54319;52.038;4.640;2023-02-04T02:00:45;103575.66;;;6.64;94.76
67457;BME280;54319;52.038;4.640;2023-02-04T02:03:13;103577.16;;;6.68;94.85
67457;BME280;54319;52.038;4.640;2023-02-04T02:05:42;103569.97;;;6.56;94.73
67457;BME280;54319;52.038;4.640;2023-02-04T02:10:59;103591.47;;;6.70;94.44
67457;BME280;54319;52.038;4.640;2023-02-04T02:13:26;103580.84;;;6.67;94.42
67457;BME280;54319;52.038;4.640;2023-02-04T02:15:53;103577.63;;;6.62;94.64
67457;BME280;54319;52.038;4.640;2023-02-04T02:18:20;103590.44;;;6.60;94.35
67457;BME280;54319;52.038;4.640;2023-02-04T02:20:47;103594.50;;;6.54;95.00
67457;BME280;54319;52.038;4.640;2023-02-04T02:23:17;103592.91;;;6.51;94.94
67457;BME280;54319;52.038;4.640;2023-02-04T02:25:48;103584.75;;;6.51;95.23
67457;BME280;54319;52.038;4.640;2023-02-04T02:28:17;103592.00;;;6.51;95.45
67457;BME280;54319;52.038;4.640;2023-02-04T02:30:45;103586.59;;;6.51;95.13
67457;BME280;54319;52.038;4.640;2023-02-04T02:33:15;103584.44;;;6.43;94.84
67457;BME280;54319;52.038;4.640;2023-02-04T02:35:45;103596.81;;;6.47;95.14
67457;BME280;54319;52.038;4.640;2023-02-04T02:38:13;103602.34;;;6.46;95.63
67457;BME280;54319;52.038;4.640;2023-02-04T02:40:41;103592.59;;;6.43;95.17
67457;BME280;54319;52.038;4.640;2023-02-04T02:43:14;103581.47;;;6.35;95.35
67457;BME280;54319;52.038;4.640;2023-02-04T02:45:42;103598.25;;;6.40;95.32
67457;BME280;54319;52.038;4.640;2023-02-04T02:48:09;103609.75;;;6.44;95.32
67457;BME280;54319;52.038;4.640;2023-02-04T02:50:36;103601.59;;;6.44;95.53
67457;BME280;54319;52.038;4.640;2023-02-04T02:53:04;103609.00;;;6.42;95.60
67457;BME280;54319;52.038;4.640;2023-02-04T02:55:31;103601.72;;;6.42;95.39
67457;BME280;54319;52.038;4.640;2023-02-04T02:57:58;103604.41;;;6.42;95.19
67457;BME280;54319;52.038;4.640;2023-02-04T03:00:28;103602.59;;;6.43;95.31
67457;BME280;54319;52.038;4.640;2023-02-04T03:02:59;103605.41;;;6.41;95.31
67457;BME280;54319;52.038;4.640;2023-02-04T03:05:29;103591.81;;;6.30;95.29
67457;BME280;54319;52.038;4.640;2023-02-04T03:07:58;103596.00;;;6.34;95.39
67457;BME280;54319;52.038;4.640;2023-02-04T03:10:25;103569.09;;;6.19;95.43
67457;BME280;54319;52.038;4.640;2023-02-04T03:12:53;103598.47;;;6.37;95.41
67457;BME280;54319;52.038;4.640;2023-02-04T03:15:19;103600.13;;;6.40;95.41
67457;BME280;54319;52.038;4.640;2023-02-04T03:17:48;103603.81;;;6.39;95.47
67457;BME280;54319;52.038;4.640;2023-02-04T03:20:20;103601.84;;;6.41;95.52
67457;BME280;54319;52.038;4.640;2023-02-04T03:22:50;103613.53;;;6.41;95.47
67457;BME280;54319;52.038;4.640;2023-02-04T03:25:17;103600.97;;;6.40;95.49
67457;BME280;54319;52.038;4.640;2023-02-04T03:27:44;103611.94;;;6.39;95.31
67457;BME280;54319;52.038;4.640;2023-02-04T03:30:12;103612.78;;;6.39;95.52
67457;BME280;54319;52.038;4.640;2023-02-04T03:32:39;103583.06;;;6.26;95.35
67457;BME280;54319;52.038;4.640;2023-02-04T03:35:07;103605.53;;;6.40;95.41
67457;BME280;54319;52.038;4.640;2023-02-04T03:37:34;103607.50;;;6.37;95.52
67457;BME280;54319;52.038;4.640;2023-02-04T03:40:02;103619.44;;;6.35;95.60
67457;BME280;54319;52.038;4.640;2023-02-04T03:42:30;103599.53;;;6.23;95.50
67457;BME280;54319;52.038;4.640;2023-02-04T03:44:56;103613.38;;;6.31;95.38
67457;BME280;54319;52.038;4.640;2023-02-04T03:50:21;103600.31;;;6.25;95.37
67457;BME280;54319;52.038;4.640;2023-02-04T03:52:48;103609.06;;;6.29;95.49
67457;BME280;54319;52.038;4.640;2023-02-04T03:55:15;103608.31;;;6.27;95.43
67457;BME280;54319;52.038;4.640;2023-02-04T03:57:43;103611.25;;;6.23;95.83
67457;BME280;54319;52.038;4.640;2023-02-04T04:00:11;103614.94;;;6.22;95.80
67457;BME280;54319;52.038;4.640;2023-02-04T04:02:38;103612.97;;;6.25;95.75
67457;BME280;54319;52.038;4.640;2023-02-04T04:05:06;103612.09;;;6.24;95.89
67457;BME280;54319;52.038;4.640;2023-02-04T04:07:35;103612.22;;;6.22;95.59
67457;BME280;54319;52.038;4.640;2023-02-04T04:10:02;103558.69;;;5.89;95.75
67457;BME280;54319;52.038;4.640;2023-02-04T04:12:29;103623.72;;;6.26;95.87
67457;BME280;54319;52.038;4.640;2023-02-04T04:14:56;103596.19;;;6.19;95.87
67457;BME280;54319;52.038;4.640;2023-02-04T04:17:25;103606.81;;;6.22;95.92
67457;BME280;54319;52.038;4.640;2023-02-04T04:19:51;103613.31;;;6.20;95.94
67457;BME280;54319;52.038;4.640;2023-02-04T04:22:18;103606.28;;;6.17;95.82
67457;BME280;54319;52.038;4.640;2023-02-04T04:24:46;103608.47;;;6.12;95.44
67457;BME280;54319;52.038;4.640;2023-02-04T04:27:13;103621.50;;;6.07;95.52
67457;BME280;54319;52.038;4.640;2023-02-04T04:29:40;103622.69;;;6.03;95.51
67457;BME280;54319;52.038;4.640;2023-02-04T04:32:07;103616.63;;;5.99;95.70
67457;BME280;54319;52.038;4.640;2023-02-04T04:34:34;103616.72;;;5.98;95.30
67457;BME280;54319;52.038;4.640;2023-02-04T04:37:02;103631.25;;;5.97;95.71
67457;BME280;54319;52.038;4.640;2023-02-04T04:39:28;103630.16;;;5.99;95.79
67457;BME280;54319;52.038;4.640;2023-02-04T04:41:56;103634.50;;;6.02;95.99
67457;BME280;54319;52.038;4.640;2023-02-04T04:44:23;103646.00;;;6.05;96.24
67457;BME280;54319;52.038;4.640;2023-02-04T04:46:50;103651.84;;;6.12;96.07
67457;BME280;54319;52.038;4.640;2023-02-04T04:49:17;103655.41;;;6.13;96.25
67457;BME280;54319;52.038;4.640;2023-02-04T04:51:44;103656.06;;;6.16;96.20
67457;BME280;54319;52.038;4.640;2023-02-04T04:54:11;103651.41;;;6.18;96.38
67457;BME280;54319;52.038;4.640;2023-02-04T04:56:38;103653.97;;;6.20;96.28
67457;BME280;54319;52.038;4.640;2023-02-04T04:59:06;103656.59;;;6.21;96.26
67457;BME280;54319;52.038;4.640;2023-02-04T05:01:33;103654.63;;;6.23;96.05
67457;BME280;54319;52.038;4.640;2023-02-04T05:04:00;103658.09;;;6.26;96.27
67457;BME280;54319;52.038;4.640;2023-02-04T05:06:28;103656.13;;;6.28;96.44
67457;BME280;54319;52.038;4.640;2023-02-04T05:08:55;103635.34;;;6.15;96.18
67457;BME280;54319;52.038;4.640;2023-02-04T05:11:23;103659.34;;;6.33;96.23
67457;BME280;54319;52.038;4.640;2023-02-04T05:13:50;103658.38;;;6.34;96.19
67457;BME280;54319;52.038;4.640;2023-02-04T05:16:18;103658.03;;;6.39;96.30
67457;BME280;54319;52.038;4.640;2023-02-04T05:18:45;103652.19;;;6.32;96.30
67457;BME280;54319;52.038;4.640;2023-02-04T05:21:11;103664.31;;;6.39;95.95
67457;BME280;54319;52.038;4.640;2023-02-04T05:23:38;103661.50;;;6.41;96.25
67457;BME280;54319;52.038;4.640;2023-02-04T05:26:05;103654.69;;;6.35;96.21
67457;BME280;54319;52.038;4.640;2023-02-04T05:28:33;103632.94;;;6.23;96.06
67457;BME280;54319;52.038;4.640;2023-02-04T05:30:59;103658.13;;;6.37;95.87
67457;BME280;54319;52.038;4.640;2023-02-04T05:33:28;103657.16;;;6.38;96.25
67457;BME280;54319;52.038;4.640;2023-02-04T05:35:54;103667.25;;;6.36;95.88
67457;BME280;54319;52.038;4.640;2023-02-04T05:38:21;103675.81;;;6.43;95.63
67457;BME280;54319;52.038;4.640;2023-02-04T05:40:48;103670.72;;;6.38;95.77
67457;BME280;54319;52.038;4.640;2023-02-04T05:43:15;103678.41;;;6.44;95.83
67457;BME280;54319;52.038;4.640;2023-02-04T05:45:42;103670.38;;;6.43;95.95
67457;BME280;54319;52.038;4.640;2023-02-04T05:48:09;103678.41;;;6.44;95.95
67457;BME280;54319;52.038;4.640;2023-02-04T05:50:37;103673.00;;;6.44;96.04
67457;BME280;54319;52.038;4.640;2023-02-04T05:53:04;103669.41;;;6.44;96.01
67457;BME280;54319;52.038;4.640;2023-02-04T05:55:31;103657.63;;;6.32;95.93
67457;BME280;54319;52.038;4.640;2023-02-04T05:57:58;103685.44;;;6.47;95.93
67457;BME280;54319;52.038;4.640;2023-02-04T06:00:25;103690.75;;;6.48;96.10
67457;BME280;54319;52.038;4.640;2023-02-04T06:02:51;103690.75;;;6.48;96.00
67457;BME280;54319;52.038;4.640;2023-02-04T06:05:18;103694.31;;;6.49;95.92
67457;BME280;54319;52.038;4.640;2023-02-04T06:07:48;103668.22;;;6.35;95.90
67457;BME280;54319;52.038;4.640;2023-02-04T06:10:15;103693.47;;;6.48;95.90
67457;BME280;54319;52.038;4.640;2023-02-04T06:12:44;103696.94;;;6.50;95.81
67457;BME280;54319;52.038;4.640;2023-02-04T06:15:10;103703.56;;;6.46;95.85
67457;BME280;54319;52.038;4.640;2023-02-04T06:17:37;103704.31;;;6.48;95.93
67457;BME280;54319;52.038;4.640;2023-02-04T06:20:05;103710.38;;;6.52;95.99
67457;BME280;54319;52.038;4.640;2023-02-04T06:22:32;103704.19;;;6.50;95.92
67457;BME280;54319;52.038;4.640;2023-02-04T06:25:00;103704.19;;;6.50;95.63
67457;BME280;54319;52.038;4.640;2023-02-04T06:27:28;103715.47;;;6.57;96.12
67457;BME280;54319;52.038;4.640;2023-02-04T06:29:54;103713.06;;;6.52;96.10
67457;BME280;54319;52.038;4.640;2023-02-04T06:32:22;103723.59;;;6.57;95.95
67457;BME280;54319;52.038;4.640;2023-02-04T06:34:49;103727.16;;;6.57;95.95
67457;BME280;54319;52.038;4.640;2023-02-04T06:37:16;103729.78;;;6.59;95.61
67457;BME280;54319;52.038;4.640;2023-02-04T06:39:43;103729.63;;;6.60;96.06
67457;BME280;54319;52.038;4.640;2023-02-04T06:42:11;103714.94;;;6.51;95.60
67457;BME280;54319;52.038;4.640;2023-02-04T06:44:38;103723.81;;;6.54;95.94
67457;BME280;54319;52.038;4.640;2023-02-04T06:47:06;103730.53;;;6.61;95.60
67457;BME280;54319;52.038;4.640;2023-02-04T06:49:32;103717.66;;;6.51;95.73
67457;BME280;54319;52.038;4.640;2023-02-04T06:51:59;103732.47;;;6.59;95.73
67457;BME280;54319;52.038;4.640;2023-02-04T06:54:26;103735.19;;;6.59;95.67
67457;BME280;54319;52.038;4.640;2023-02-04T06:56:53;103739.75;;;6.58;95.60
67457;BME280;54319;52.038;4.640;2023-02-04T06:59:21;103740.50;;;6.60;95.73
67457;BME280;54319;52.038;4.640;2023-02-04T07:01:51;103736.94;;;6.60;95.72
67457;BME280;54319;52.038;4.640;2023-02-04T07:04:17;103746.78;;;6.61;95.76
67457;BME280;54319;52.038;4.640;2023-02-04T07:06:45;103743.84;;;6.64;95.50
67457;BME280;54319;52.038;4.640;2023-02-04T07:09:12;103751.66;;;6.69;95.37
67457;BME280;54319;52.038;4.640;2023-02-04T07:11:38;103745.50;;;6.66;95.70
67457;BME280;54319;52.038;4.640;2023-02-04T07:14:05;103753.63;;;6.66;95.54
67457;BME280;54319;52.038;4.640;2023-02-04T07:16:33;103750.03;;;6.66;95.65
67457;BME280;54319;52.038;4.640;2023-02-04T07:19:00;103758.16;;;6.66;95.87
67457;BME280;54319;52.038;4.640;2023-02-04T07:21:27;103752.75;;;6.66;95.47
67457;BME280;54319;52.038;4.640;2023-02-04T07:23:55;103749.03;;;6.67;95.61
67457;BME280;54319;52.038;4.640;2023-02-04T07:26:21;103756.22;;;6.68;95.54
67457;BME280;54319;52.038;4.640;2023-02-04T07:28:48;103751.66;;;6.69;95.64
67457;BME280;54319;52.038;4.640;2023-02-04T07:31:15;103750.53;;;6.71;95.56
67457;BME280;54319;52.038;4.640;2023-02-04T07:33:44;103747.84;;;6.71;95.29
67457;BME280;54319;52.038;4.640;2023-02-04T07:36:10;103749.47;;;6.74;95.73
67457;BME280;54319;52.038;4.640;2023-02-04T07:38:37;103758.34;;;6.76;95.60
67457;BME280;54319;52.038;4.640;2023-02-04T07:41:04;103760.94;;;6.77;95.57
67457;BME280;54319;52.038;4.640;2023-02-04T07:43:32;103769.81;;;6.79;95.58
67457;BME280;54319;52.038;4.640;2023-02-04T07:45:58;103778.72;;;6.81;95.54
67457;BME280;54319;52.038;4.640;2023-02-04T07:48:25;103774.91;;;6.84;95.31
67457;BME280;54319;52.038;4.640;2023-02-04T07:50:53;103779.25;;;6.87;95.43
67457;BME280;54319;52.038;4.640;2023-02-04T07:53:20;103777.16;;;6.90;95.20
67457;BME280;54319;52.038;4.640;2023-02-04T07:55:47;103782.50;;;6.92;95.66
67457;BME280;54319;52.038;4.640;2023-02-04T07:58:15;103769.41;;;6.86;95.47
67457;BME280;54319;52.038;4.640;2023-02-04T08:00:42;103778.56;;;6.96;95.23
67457;BME280;54319;52.038;4.640;2023-02-04T08:03:09;103779.53;;;6.95;95.19
67457;BME280;54319;52.038;4.640;2023-02-04T08:05:36;103800.03;;;6.99;95.21
67457;BME280;54319;52.038;4.640;2023-02-04T08:08:04;103798.97;;;7.02;95.19
67457;BME280;54319;52.038;4.640;2023-02-04T08:10:31;103797.00;;;7.04;95.18
67457;BME280;54319;52.038;4.640;2023-02-04T08:12:58;103799.34;;;7.08;95.22
67457;BME280;54319;52.038;4.640;2023-02-04T08:15:25;103759.53;;;6.85;95.16
67457;BME280;54319;52.038;4.640;2023-02-04T08:17:52;103806.16;;;7.14;95.01
67457;BME280;54319;52.038;4.640;2023-02-04T08:20:18;103815.91;;;7.17;94.95
67457;BME280;54319;52.038;4.640;2023-02-04T08:22:46;103805.06;;;7.17;95.00
67457;BME280;54319;52.038;4.640;2023-02-04T08:25:14;103771.28;;;6.97;94.44
67457;BME280;54319;52.038;4.640;2023-02-04T08:27:41;103819.16;;;7.22;94.72
67457;BME280;54319;52.038;4.640;2023-02-04T08:30:09;103812.53;;;7.26;94.70
67457;BME280;54319;52.038;4.640;2023-02-04T08:32:37;103812.16;;;7.31;94.70
67457;BME280;54319;52.038;4.640;2023-02-04T08:35:05;103818.84;;;7.38;94.92
67457;BME280;54319;52.038;4.640;2023-02-04T08:37:32;103796.84;;;7.30;94.92
67457;BME280;54319;52.038;4.640;2023-02-04T08:39:58;103829.63;;;7.51;94.60
67457;BME280;54319;52.038;4.640;2023-02-04T08:42:27;103826.44;;;7.57;94.54
67457;BME280;54319;52.038;4.640;2023-02-04T08:44:54;103807.88;;;7.39;93.92
67457;BME280;54319;52.038;4.640;2023-02-04T08:47:22;103791.31;;;7.31;93.93
67457;BME280;54319;52.038;4.640;2023-02-04T08:49:49;103840.56;;;7.62;93.74
67457;BME280;54319;52.038;4.640;2023-02-04T08:52:16;103836.13;;;7.73;94.05
67457;BME280;54319;52.038;4.640;2023-02-04T08:54:43;103826.66;;;7.78;93.65
67457;BME280;54319;52.038;4.640;2023-02-04T08:57:10;103837.88;;;7.85;93.77
67457;BME280;54319;52.038;4.640;2023-02-04T08:59:38;103784.84;;;7.57;93.46
67457;BME280;54319;52.038;4.640;2023-02-04T09:02:05;103841.25;;;7.89;92.88
67457;BME280;54319;52.038;4.640;2023-02-04T09:04:32;103840.50;;;7.87;92.69
67457;BME280;54319;52.038;4.640;2023-02-04T09:06:59;103832.59;;;7.84;92.43
67457;BME280;54319;52.038;4.640;2023-02-04T09:09:26;103793.72;;;7.59;92.53
67457;BME280;54319;52.038;4.640;2023-02-04T09:11:55;103842.81;;;7.91;92.89
67457;BME280;54319;52.038;4.640;2023-02-04T09:14:22;103809.69;;;7.75;92.60
67457;BME280;54319;52.038;4.640;2023-02-04T09:16:50;103848.03;;;7.94;92.40
67457;BME280;54319;52.038;4.640;2023-02-04T09:19:17;103854.22;;;7.96;92.73
67457;BME280;54319;52.038;4.640;2023-02-04T09:21:49;103866.59;;;8.01;92.25
67457;BME280;54319;52.038;4.640;2023-02-04T09:24:16;103864.38;;;8.06;92.46
67457;BME280;54319;52.038;4.640;2023-02-04T09:26:42;103843.88;;;8.02;92.87
67457;BME280;54319;52.038;4.640;2023-02-04T09:29:10;103870.31;;;8.22;92.48
67457;BME280;54319;52.038;4.640;2023-02-04T09:31:36;103870.81;;;8.28;91.76
67457;BME280;54319;52.038;4.640;2023-02-04T09:34:06;103844.59;;;8.15;91.58
67457;BME280;54319;52.038;4.640;2023-02-04T09:36:33;103860.06;;;8.26;91.25
67457;BME280;54319;52.038;4.640;2023-02-04T09:39:03;103794.16;;;7.88;90.85
67457;BME280;54319;52.038;4.640;2023-02-04T09:41:30;103865.03;;;8.32;90.78
67457;BME280;54319;52.038;4.640;2023-02-04T09:43:58;103876.88;;;8.31;90.85
67457;BME280;54319;52.038;4.640;2023-02-04T09:46:25;103880.22;;;8.23;90.53
67457;BME280;54319;52.038;4.640;2023-02-04T09:48:57;103863.91;;;8.23;90.76
67457;BME280;54319;52.038;4.640;2023-02-04T09:51:26;103866.38;;;8.26;90.55
67457;BME280;54319;52.038;4.640;2023-02-04T09:54:00;103882.72;;;8.38;90.61
67457;BME280;54319;52.038;4.640;2023-02-04T09:56:29;103882.47;;;8.41;90.36
67457;BME280;54319;52.038;4.640;2023-02-04T09:58:57;103882.75;;;8.49;90.57
67457;BME280;54319;52.038;4.640;2023-02-04T10:01:25;103894.50;;;8.61;90.95
67457;BME280;54319;52.038;4.640;2023-02-04T10:03:57;103896.56;;;8.69;90.29
67457;BME280;54319;52.038;4.640;2023-02-04T10:06:27;103884.69;;;8.70;89.60
67457;BME280;54319;52.038;4.640;2023-02-04T10:08:54;103884.22;;;8.65;88.40
67457;BME280;54319;52.038;4.640;2023-02-04T10:11:22;103902.03;;;8.69;89.00
67457;BME280;54319;52.038;4.640;2023-02-04T10:13:52;103902.75;;;8.71;88.77
67457;BME280;54319;52.038;4.640;2023-02-04T10:16:21;103901.81;;;8.72;88.97
67457;BME280;54319;52.038;4.640;2023-02-04T10:18:54;103884.47;;;8.50;88.00
67457;BME280;54319;52.038;4.640;2023-02-04T10:21:25;103900.78;;;8.62;88.41
67457;BME280;54319;52.038;4.640;2023-02-04T10:23:56;103910.81;;;8.61;88.50
67457;BME280;54319;52.038;4.640;2023-02-04T10:26:26;103902.53;;;8.63;88.59
67457;BME280;54319;52.038;4.640;2023-02-04T10:28:58;103889.41;;;8.57;88.62
67457;BME280;54319;52.038;4.640;2023-02-04T10:31:30;103902.53;;;8.63;87.88
67457;BME280;54319;52.038;4.640;2023-02-04T10:34:03;103910.06;;;8.71;88.13
67457;BME280;54319;52.038;4.640;2023-02-04T10:36:30;103911.69;;;8.73;87.18
67457;BME280;54319;52.038;4.640;2023-02-04T10:39:02;103900.03;;;8.71;86.38
67457;BME280;54319;52.038;4.640;2023-02-04T10:41:29;103906.50;;;8.81;86.14
67457;BME280;54319;52.038;4.640;2023-02-04T10:44:03;103893.88;;;8.80;86.01
67457;BME280;54319;52.038;4.640;2023-02-04T10:46:30;103915.38;;;8.95;84.86
67457;BME280;54319;52.038;4.640;2023-02-04T10:48:58;103903.00;;;8.91;84.12
67457;BME280;54319;52.038;4.640;2023-02-04T10:51:24;103916.38;;;8.94;82.69
67457;BME280;54319;52.038;4.640;2023-02-04T10:53:52;103912.66;;;8.95;83.58
67457;BME280;54319;52.038;4.640;2023-02-04T10:56:37;103909.69;;;8.98;84.67
67457;BME280;54319;52.038;4.640;2023-02-04T10:59:05;103886.03;;;8.87;84.76
67457;BME280;54319;52.038;4.640;2023-02-04T11:01:36;103909.91;;;9.06;84.71
67457;BME280;54319;52.038;4.640;2023-02-04T11:04:08;103905.09;;;9.10;84.61
67457;BME280;54319;52.038;4.640;2023-02-04T11:06:35;103911.75;;;9.17;85.30
67457;BME280;54319;52.038;4.640;2023-02-04T11:09:02;103908.66;;;9.22;84.89
67457;BME280;54319;52.038;4.640;2023-02-04T11:11:29;103905.19;;;9.20;84.35
67457;BME280;54319;52.038;4.640;2023-02-04T11:14:00;103908.66;;;9.22;84.23
67457;BME280;54319;52.038;4.640;2023-02-04T11:16:29;103907.66;;;9.23;83.93
67457;BME280;54319;52.038;4.640;2023-02-04T11:18:59;103896.03;;;9.21;84.32
67457;BME280;54319;52.038;4.640;2023-02-04T11:21:28;103889.09;;;9.17;83.67
67457;BME280;54319;52.038;4.640;2023-02-04T11:24:16;103902.78;;;9.26;84.16
67457;BME280;54319;52.038;4.640;2023-02-04T11:26:47;103901.81;;;9.27;84.26
67457;BME280;54319;52.038;4.640;2023-02-04T11:29:27;103892.94;;;9.14;82.55
67457;BME280;54319;52.038;4.640;2023-02-04T11:32:01;103899.47;;;9.23;83.20
67457;BME280;54319;52.038;4.640;2023-02-04T11:34:43;103902.31;;;9.21;83.32
67457;BME280;54319;52.038;4.640;2023-02-04T11:37:15;103882.91;;;9.15;83.04
67457;BME280;54319;52.038;4.640;2023-02-04T11:39:44;103884.50;;;9.17;82.48
67457;BME280;54319;52.038;4.640;2023-02-04T11:42:17;103898.88;;;9.19;81.92
67457;BME280;54319;52.038;4.640;2023-02-04T11:44:51;103895.91;;;9.11;81.93
67457;BME280;54319;52.038;4.640;2023-02-04T11:47:21;103898.28;;;9.16;82.34
67457;BME280;54319;52.038;4.640;2023-02-04T11:49:54;103883.91;;;9.14;81.56
67457;BME280;54319;52.038;4.640;2023-02-04T11:52:21;103896.13;;;9.19;81.04
67457;BME280;54319;52.038;4.640;2023-02-04T11:54:52;103897.53;;;9.14;82.50
67457;BME280;54319;52.038;4.640;2023-02-04T11:57:20;103896.66;;;9.13;82.04
67457;BME280;54319;52.038;4.640;2023-02-04T11:59:47;103895.53;;;9.16;82.83
67457;BME280;54319;52.038;4.640;2023-02-04T12:02:16;103902.25;;;9.11;81.99
67457;BME280;54319;52.038;4.640;2023-02-04T12:04:51;103898.53;;;9.12;82.08
67457;BME280;54319;52.038;4.640;2023-02-04T12:07:25;103901.72;;;9.18;81.35
67457;BME280;54319;52.038;4.640;2023-02-04T12:09:52;103871.56;;;8.98;81.54
67457;BME280;54319;52.038;4.640;2023-02-04T12:12:25;103902.06;;;9.24;82.66
67457;BME280;54319;52.038;4.640;2023-02-04T12:14:56;103891.53;;;9.31;81.13
67457;BME280;54319;52.038;4.640;2023-02-04T12:17:25;103894.47;;;9.39;80.76
67457;BME280;54319;52.038;4.640;2023-02-04T12:19:51;103902.88;;;9.48;79.82
67457;BME280;54319;52.038;4.640;2023-02-04T12:22:19;103896.94;;;9.43;79.74
67457;BME280;54319;52.038;4.640;2023-02-04T12:24:45;103900.47;;;9.54;80.45
67457;BME280;54319;52.038;4.640;2023-02-04T12:27:12;103910.75;;;9.62;79.68
67457;BME280;54319;52.038;4.640;2023-02-04T12:29:39;103905.03;;;9.65;79.31
67457;BME280;54319;52.038;4.640;2023-02-04T12:32:06;103911.28;;;9.56;79.12
67457;BME280;54319;52.038;4.640;2023-02-04T12:34:34;103907.44;;;9.47;78.65
67457;BME280;54319;52.038;4.640;2023-02-04T12:37:01;103908.81;;;9.53;79.73
67457;BME280;54319;52.038;4.640;2023-02-04T12:39:28;103918.09;;;9.50;78.45
67457;BME280;54319;52.038;4.640;2023-02-04T12:41:56;103878.44;;;9.25;79.35
67457;BME280;54319;52.038;4.640;2023-02-04T12:44:23;103911.06;;;9.36;79.41
67457;BME280;54319;52.038;4.640;2023-02-04T12:46:50;103902.63;;;9.39;80.37
67457;BME280;54319;52.038;4.640;2023-02-04T12:49:16;103904.09;;;9.44;80.20
67457;BME280;54319;52.038;4.640;2023-02-04T12:51:45;103895.47;;;9.38;79.96
67457;BME280;54319;52.038;4.640;2023-02-04T12:54:12;103897.84;;;9.32;80.66
67457;BME280;54319;52.038;4.640;2023-02-04T12:56:38;103899.66;;;9.43;80.68
67457;BME280;54319;52.038;4.640;2023-02-04T12:59:06;103900.91;;;9.38;81.01
67457;BME280;54319;52.038;4.640;2023-02-04T13:01:32;103901.66;;;9.40;80.15
67457;BME280;54319;52.038;4.640;2023-02-04T13:04:00;103895.25;;;9.30;80.04
67457;BME280;54319;52.038;4.640;2023-02-04T13:06:27;103900.47;;;9.22;79.47
67457;BME280;54319;52.038;4.640;2023-02-04T13:08:56;103900.25;;;9.14;80.47